WAJJ/DJJ METAR and TAF weather

Enter ICAO airport designator
Station Type Date Time Source
WAJJ METAR 2020/02/29 03:30 UTC NOAA

WAJJ 290330Z 13004KT 9999 FEW013TCU FEW014 34/23 Q1006 NOSIG


Station Type Date Time Source
WAJJ Decoded METAR 2020/02/29 03:30 UTC NOAA

Jayapura / Sentani, Indonesia (WAJJ) 02-34S 140-29E 99M
Feb 28, 2020 - 10:30 PM EST / 2020.02.29 0330 UTC
Wind: from the SE (130 degrees) at 5 MPH (4 KT):0
Visibility: greater than 7 mile(s):0
Sky conditions: mostly clear
Weather: Towering cumulus clouds observed
Temperature: 93 F (34 C)
Heat index: 101.8 F (38.8 C):1
Dew Point: 73 F (23 C)
Relative Humidity: 52%
Pressure (altimeter): 29.71 in. Hg (1006 hPa)
ob: WAJJ 290330Z 13004KT 9999 FEW013TCU FEW014 34/23 Q1006 NOSIG
cycle: 3

Station Type Date Time Source
WAJJ TAF 2013/03/11 12:00 UTC NOAA

TAF WAJJ 111100Z 1112/1212 29006KT 5000 HZ SCT016
TEMPO 1113/1121 4000 RA FEW014CB
BECMG 1200/1202 28012KT 9999
TEMPO 1207/1212 6000 RA FEW014CB

Example: see airport list